Time;durP1;ratioP1;P1;durP2;ratioP2;P2;SDS_P1;SDS_P2;PMS_P1;PMS_P2;Temp;Humidity;BMP_temperature;BMP_pressure;BME280_temperature;BME280_humidity;BME280_pressure;Samples;Min_cycle;Max_cycle;Signal;HPM_P1;HPM_P2
2024/04/24 08:06:35;;;;;;;;;;;;;;;9.09;100.00;99023.41;5508157;25;20447;-90
2024/04/24 08:09:01;;;;;;;;;;;;;;;9.12;100.00;99018.91;5474562;25;19935;-91
2024/04/24 08:11:26;;;;;;;;;;;;;;;9.16;100.00;99023.97;5444500;26;20326;-92
2024/04/24 08:13:51;;;;;;;;;;;;;;;9.20;100.00;99030.78;5474925;26;19928;-91
2024/04/24 08:16:17;;;;;;;;;;;;;;;9.29;100.00;99028.66;5473138;26;19928;-92
2024/04/24 08:18:44;;;;;;;;;;;;;;;9.30;100.00;99022.41;5474703;26;19968;-91
2024/04/24 08:21:09;;;;;;;;;;;;;;;9.32;100.00;99021.41;5506927;25;19960;-90
2024/04/24 08:23:34;;;;;;;;;;;;;;;9.27;100.00;99019.00;5474223;26;19927;-92
2024/04/24 08:26:02;;;;;;;;;;;;;;;9.26;100.00;99033.13;5506333;25;20308;-89
2024/04/24 08:28:27;;;;;;;;;;;;;;;9.26;100.00;99035.78;5475419;26;19960;-88
2024/04/24 08:30:58;;;;;;;;;;;;;;;9.33;100.00;99040.78;5473101;26;19928;-88
2024/04/24 08:33:23;;;;;;;;;;;;;;;9.33;100.00;99022.25;5505508;26;20021;-87
2024/04/24 08:35:48;;;;;;;;;;;;;;;9.30;100.00;99025.91;5506518;26;20339;-88
2024/04/24 08:38:14;;;;;;;;;;;;;;;9.32;100.00;99036.41;5506411;25;19935;-89
2024/04/24 08:40:39;;;;;;;;;;;;;;;9.32;100.00;99023.19;5506615;26;20426;-89
2024/04/24 08:43:04;;;;;;;;;;;;;;;9.32;100.00;99033.75;5506588;25;19939;-89
2024/04/24 08:45:33;;;;;;;;;;;;;;;9.31;100.00;99032.06;5503932;25;19928;-90
2024/04/24 08:47:59;;;;;;;;;;;;;;;9.32;100.00;99034.63;5473039;26;20355;-91
2024/04/24 08:50:25;;;;;;;;;;;;;;;9.34;100.00;99024.00;5504058;26;19934;-86
2024/04/24 08:52:53;;;;;;;;;;;;;;;9.32;100.00;99017.91;5505494;26;20375;-85
2024/04/24 08:55:19;;;;;;;;;;;;;;;9.35;100.00;99013.34;5506171;25;19932;-87
2024/04/24 08:57:47;;;;;;;;;;;;;;;9.36;100.00;99014.19;5504546;26;20386;-90
2024/04/24 09:00:12;;;;;;;;;;;;;;;9.36;100.00;98999.16;5504055;26;19939;-87
2024/04/24 09:02:43;;;;;;;;;;;;;;;9.38;100.00;99007.03;5506091;25;20431;-87
2024/04/24 09:05:08;;;;;;;;;;;;;;;9.65;100.00;99004.75;5505048;25;20003;-78
2024/04/24 09:07:35;;;;;;;;;;;;;;;10.17;100.00;99006.47;5506518;26;19940;-84
2024/04/24 09:10:01;;;;;;;;;;;;;;;10.92;100.00;99004.16;5505891;26;20350;-83
2024/04/24 09:12:27;;;;;;;;;;;;;;;11.45;100.00;99005.50;5505859;25;19928;-81
2024/04/24 09:14:52;;;;;;;;;;;;;;;11.71;100.00;98996.94;5504219;25;19939;-83
2024/04/24 09:17:18;;;;;;;;;;;;;;;11.38;100.00;98985.59;5493821;26;20355;-82
2024/04/24 09:19:43;;;;;;;;;;;;;;;10.62;100.00;98990.84;5489483;26;20267;-83
2024/04/24 09:22:08;;;;;;;;;;;;;;;10.27;100.00;98997.09;5490134;26;19931;-82
2024/04/24 09:24:35;;;;;;;;;;;;;;;10.10;100.00;98999.78;5457431;26;19932;-82
2024/04/24 09:27:00;;;;;;;;;;;;;;;10.05;100.00;98996.53;5489498;26;19927;-83
2024/04/24 09:29:26;;;;;;;;;;;;;;;9.94;100.00;98990.03;5489737;26;19928;-82
2024/04/24 09:31:51;;;;;;;;;;;;;;;9.89;100.00;98988.53;5488480;26;19932;-82
2024/04/24 09:34:17;;;;;;;;;;;;;;;9.85;100.00;98984.38;5489840;26;19996;-82
2024/04/24 09:36:44;;;;;;;;;;;;;;;9.84;100.00;98993.22;5489336;26;19996;-82
2024/04/24 09:39:12;;;;;;;;;;;;;;;9.86;100.00;98984.28;5489602;26;19939;-82
2024/04/24 09:41:41;;;;;;;;;;;;;;;9.82;100.00;98983.56;5490099;26;19935;-81
2024/04/24 09:44:09;;;;;;;;;;;;;;;9.80;100.00;98984.59;5457520;26;20382;-82
2024/04/24 09:46:34;;;;;;;;;;;;;;;9.78;100.00;98986.47;5487600;26;19932;-81
2024/04/24 09:49:00;;;;;;;;;;;;;;;9.76;100.00;98986.53;5489785;26;20298;-82
2024/04/24 09:51:25;;;;;;;;;;;;;;;9.77;100.00;98990.06;5489679;26;20003;-81
2024/04/24 09:53:50;;;;;;;;;;;;;;;9.73;100.00;98980.56;5489633;26;20019;-82
2024/04/24 09:56:20;;;;;;;;;;;;;;;9.74;100.00;98987.56;5489131;26;19928;-82
2024/04/24 09:58:48;;;;;;;;;;;;;;;9.78;100.00;98984.69;5489576;26;19935;-81
2024/04/24 10:01:15;;;;;;;;;;;;;;;9.75;100.00;98989.28;5488193;26;19928;-82
2024/04/24 10:03:41;;;;;;;;;;;;;;;9.78;100.00;98983.81;5487909;26;19959;-82
2024/04/24 10:06:08;;;;;;;;;;;;;;;9.77;100.00;98987.41;5488863;26;19937;-82
2024/04/24 10:08:34;;;;;;;;;;;;;;;9.76;100.00;98983.03;5489783;26;19935;-82
2024/04/24 10:11:01;;;;;;;;;;;;;;;9.75;100.00;98974.25;5489499;26;19927;-82
2024/04/24 10:13:27;;;;;;;;;;;;;;;9.76;100.00;98975.09;5488952;26;19927;-82
2024/04/24 10:15:54;;;;;;;;;;;;;;;9.75;100.00;98976.06;5487793;26;19996;-80
2024/04/24 10:18:20;;;;;;;;;;;;;;;9.69;100.00;98968.44;5489140;26;19928;-79
2024/04/24 10:20:46;;;;;;;;;;;;;;;9.76;100.00;98975.94;5488979;26;20091;-82
2024/04/24 10:23:12;;;;;;;;;;;;;;;9.74;100.00;98975.19;5487402;26;19928;-82
2024/04/24 10:25:38;;;;;;;;;;;;;;;9.73;100.00;98969.97;5488896;26;19928;-90
2024/04/24 10:28:04;;;;;;;;;;;;;;;9.71;100.00;98955.97;5455333;26;19936;-83
2024/04/24 10:30:29;;;;;;;;;;;;;;;9.73;100.00;98960.28;5454500;26;20054;-88
2024/04/24 10:32:55;;;;;;;;;;;;;;;9.75;100.00;98965.47;5488400;26;19934;-82
2024/04/24 10:35:23;;;;;;;;;;;;;;;9.77;100.00;98955.66;5488898;26;19928;-80
2024/04/24 10:37:58;;;;;;;;;;;;;;;9.76;100.00;98948.66;5489202;26;20366;-85
2024/04/24 10:40:26;;;;;;;;;;;;;;;9.76;100.00;98946.84;5487179;26;19935;-81
2024/04/24 10:42:52;;;;;;;;;;;;;;;9.76;100.00;98944.22;5441789;26;19956;-82
2024/04/24 10:45:17;;;;;;;;;;;;;;;9.76;100.00;98940.72;5487270;26;19935;-82
2024/04/24 10:47:42;;;;;;;;;;;;;;;9.78;100.00;98936.19;5487439;26;20435;-89
2024/04/24 10:50:14;;;;;;;;;;;;;;;9.75;100.00;98933.75;5488549;26;19928;-83
2024/04/24 10:52:47;;;;;;;;;;;;;;;9.75;100.00;98936.38;5456634;26;19935;-80
2024/04/24 10:55:14;;;;;;;;;;;;;;;9.80;100.00;98934.34;5488651;26;19928;-86
2024/04/24 10:57:44;;;;;;;;;;;;;;;9.82;100.00;98943.88;5488444;26;19928;-81
2024/04/24 11:00:12;;;;;;;;;;;;;;;9.79;100.00;98935.25;5486264;26;19935;-82
2024/04/24 11:02:38;;;;;;;;;;;;;;;9.80;100.00;98940.47;5488615;26;20248;-82
2024/04/24 11:05:03;;;;;;;;;;;;;;;9.82;100.00;98932.47;5488508;26;19935;-81
2024/04/24 11:07:28;;;;;;;;;;;;;;;9.81;100.00;98936.91;5488214;26;20344;-81
2024/04/24 11:09:54;;;;;;;;;;;;;;;9.83;100.00;98931.53;5488873;26;19995;-82
2024/04/24 11:12:19;;;;;;;;;;;;;;;9.77;100.00;98931.84;5488458;26;19928;-84
2024/04/24 11:14:45;;;;;;;;;;;;;;;9.76;100.00;98932.78;5487385;26;19936;-86
2024/04/24 11:17:10;;;;;;;;;;;;;;;9.80;100.00;98929.06;5455917;26;19928;-81
2024/04/24 11:19:35;;;;;;;;;;;;;;;9.87;100.00;98924.28;5488460;26;20568;-82
2024/04/24 11:22:01;;;;;;;;;;;;;;;9.84;100.00;98920.00;5488543;26;19930;-87
2024/04/24 11:24:26;;;;;;;;;;;;;;;9.86;100.00;98920.78;5488211;26;19939;-86
2024/04/24 11:26:52;;;;;;;;;;;;;;;9.82;100.00;98913.94;5487785;26;19928;-87
2024/04/24 11:29:17;;;;;;;;;;;;;;;9.82;100.00;98900.72;5488017;26;20352;-81
2024/04/24 11:31:44;;;;;;;;;;;;;;;9.84;100.00;98904.13;5487023;26;20407;-84
2024/04/24 11:34:10;;;;;;;;;;;;;;;9.86;100.00;98901.38;5488113;26;19928;-82
2024/04/24 11:36:36;;;;;;;;;;;;;;;9.86;100.00;98901.38;5487698;26;19939;-81
2024/04/24 11:39:02;;;;;;;;;;;;;;;9.85;100.00;98894.41;5487789;26;19928;-83
2024/04/24 11:41:29;;;;;;;;;;;;;;;9.86;100.00;98896.09;5488305;26;19934;-82
2024/04/24 11:43:55;;;;;;;;;;;;;;;9.88;100.00;98895.09;5455403;26;20261;-82
2024/04/24 11:46:21;;;;;;;;;;;;;;;9.94;100.00;98900.06;5485971;26;19927;-80
2024/04/24 11:48:51;;;;;;;;;;;;;;;9.83;100.00;98899.78;5487991;26;20353;-87
2024/04/24 11:51:16;;;;;;;;;;;;;;;9.81;100.00;98905.16;5487878;26;20263;-83
2024/04/24 11:53:45;;;;;;;;;;;;;;;9.82;100.00;98906.84;5487762;26;19996;-83
2024/04/24 11:56:10;;;;;;;;;;;;;;;9.80;100.00;98905.25;5454773;26;19935;-85
2024/04/24 11:58:35;;;;;;;;;;;;;;;9.81;100.00;98906.94;5487631;26;19927;-87
2024/04/24 12:01:01;;;;;;;;;;;;;;;9.84;100.00;98901.47;5454207;26;19939;-87
2024/04/24 12:03:26;;;;;;;;;;;;;;;9.81;100.00;98902.50;5487854;26;20026;-83
2024/04/24 12:05:52;;;;;;;;;;;;;;;9.81;100.00;98899.00;5487731;26;19928;-82
2024/04/24 12:08:26;;;;;;;;;;;;;;;9.82;100.00;98901.56;5487890;26;20359;-82
2024/04/24 12:10:56;;;;;;;;;;;;;;;9.84;100.00;98898.81;5486967;26;20263;-81
2024/04/24 12:13:23;;;;;;;;;;;;;;;9.84;100.00;98904.13;5486797;26;20363;-85
2024/04/24 12:15:58;;;;;;;;;;;;;;;9.83;100.00;98899.78;5484566;26;19940;-82
2024/04/24 12:18:24;;;;;;;;;;;;;;;9.88;100.00;98892.44;5487388;26;20279;-91
2024/04/24 12:20:49;;;;;;;;;;;;;;;9.86;100.00;98890.81;5485965;26;19928;-87
2024/04/24 12:23:17;;;;;;;;;;;;;;;9.85;100.00;98884.66;5487345;26;19935;-86
2024/04/24 12:25:43;;;;;;;;;;;;;;;9.86;100.00;98881.09;5487134;26;19997;-83
2024/04/24 12:28:08;;;;;;;;;;;;;;;9.91;100.00;98878.22;5487648;26;19943;-85
2024/04/24 12:30:33;;;;;;;;;;;;;;;9.90;100.00;98876.50;5485810;26;19927;-79
2024/04/24 12:32:59;;;;;;;;;;;;;;;9.90;100.00;98874.69;5487413;26;20255;-88
2024/04/24 12:35:26;;;;;;;;;;;;;;;9.89;100.00;98873.00;5487194;26;19934;-87
2024/04/24 12:37:51;;;;;;;;;;;;;;;9.89;100.00;98870.34;5453854;26;20357;-81
2024/04/24 12:40:17;;;;;;;;;;;;;;;9.90;100.00;98865.91;5487101;26;19935;-81
2024/04/24 12:42:42;;;;;;;;;;;;;;;9.94;100.00;98867.44;5487435;26;19928;-81
2024/04/24 12:45:08;;;;;;;;;;;;;;;9.96;100.00;98861.13;5485567;26;19971;-81
2024/04/24 12:47:33;;;;;;;;;;;;;;;9.94;100.00;98863.00;5486965;26;19935;-82
2024/04/24 12:49:58;;;;;;;;;;;;;;;9.94;100.00;98863.00;5487079;26;19932;-84
2024/04/24 12:52:24;;;;;;;;;;;;;;;9.95;100.00;98859.41;5489197;26;19969;-81
2024/04/24 12:54:49;;;;;;;;;;;;;;;9.93;100.00;98845.41;5490458;26;19928;-81
2024/04/24 12:57:15;;;;;;;;;;;;;;;9.92;100.00;98838.41;5490743;26;19928;-85
2024/04/24 12:59:40;;;;;;;;;;;;;;;9.92;100.00;98843.69;5428576;26;19928;-84
2024/04/24 13:02:05;;;;;;;;;;;;;;;9.93;100.00;98839.28;5489024;26;19939;-81
2024/04/24 13:04:31;;;;;;;;;;;;;;;9.92;100.00;98843.69;5490148;26;20379;-88
2024/04/24 13:06:56;;;;;;;;;;;;;;;9.90;100.00;98850.88;5458253;26;19940;-86
2024/04/24 13:09:23;;;;;;;;;;;;;;;9.92;100.00;98856.94;5490430;26;20004;-86
2024/04/24 13:11:51;;;;;;;;;;;;;;;9.93;100.00;98853.34;5490354;26;19935;-86
2024/04/24 13:14:16;;;;;;;;;;;;;;;9.89;100.00;98854.47;5489647;26;19928;-82
2024/04/24 13:16:42;;;;;;;;;;;;;;;9.92;100.00;98859.56;5488749;26;19928;-80
2024/04/24 13:19:07;;;;;;;;;;;;;;;9.89;100.00;98880.06;5490372;26;20367;-79
2024/04/24 13:21:32;;;;;;;;;;;;;;;9.87;100.00;98898.66;5490226;26;19927;-84
2024/04/24 13:23:58;;;;;;;;;;;;;;;9.86;100.00;98896.97;5490096;26;19928;-83
2024/04/24 13:26:23;;;;;;;;;;;;;;;9.84;100.00;98867.06;5490322;26;19928;-82
2024/04/24 13:28:48;;;;;;;;;;;;;;;9.84;100.00;98869.72;5490458;26;20258;-80
2024/04/24 13:31:17;;;;;;;;;;;;;;;9.84;100.00;98869.72;5488704;26;19938;-81
2024/04/24 13:33:42;;;;;;;;;;;;;;;9.85;100.00;98858.22;5489459;26;19939;-82
2024/04/24 13:36:07;;;;;;;;;;;;;;;9.86;100.00;98844.06;5490118;26;19928;-82
2024/04/24 13:38:32;;;;;;;;;;;;;;;9.86;100.00;98845.81;5457726;26;19935;-81
2024/04/24 13:41:02;;;;;;;;;;;;;;;9.87;100.00;98836.97;5490115;26;19939;-85
2024/04/24 13:43:27;;;;;;;;;;;;;;;9.88;100.00;98839.53;5489906;26;19987;-83
2024/04/24 13:45:52;;;;;;;;;;;;;;;9.89;100.00;98830.66;5488322;26;20405;-84
2024/04/24 13:48:18;;;;;;;;;;;;;;;9.87;100.00;98835.16;5489843;26;19928;-87
2024/04/24 13:50:43;;;;;;;;;;;;;;;9.87;100.00;98832.50;5457636;26;19961;-81
2024/04/24 13:53:08;;;;;;;;;;;;;;;9.91;100.00;98826.13;5490050;26;20267;-88
2024/04/24 13:55:34;;;;;;;;;;;;;;;9.92;100.00;98821.69;5457058;26;19938;-83
2024/04/24 13:57:59;;;;;;;;;;;;;;;9.92;100.00;98817.22;5489792;26;19928;-79
2024/04/24 14:00:24;;;;;;;;;;;;;;;9.91;100.00;98812.91;5488187;26;19935;-79
2024/04/24 14:02:50;;;;;;;;;;;;;;;9.91;100.00;98812.91;5489568;26;19995;-81
2024/04/24 14:05:15;;;;;;;;;;;;;;;9.93;100.00;98811.00;5489546;26;19935;-82
2024/04/24 14:07:41;;;;;;;;;;;;;;;9.95;100.00;98809.13;5458087;26;19972;-88
2024/04/24 14:10:06;;;;;;;;;;;;;;;9.94;100.00;98819.78;5457481;26;19935;-82
2024/04/24 14:12:31;;;;;;;;;;;;;;;9.99;100.00;98825.72;5489610;26;19930;-83
2024/04/24 14:14:56;;;;;;;;;;;;;;;9.96;100.00;98829.38;5488149;26;20327;-82
2024/04/24 14:17:22;;;;;;;;;;;;;;;9.94;100.00;98827.72;5489537;26;19934;-81
2024/04/24 14:19:47;;;;;;;;;;;;;;;9.91;100.00;98836.72;5489378;26;19928;-81
2024/04/24 14:22:12;;;;;;;;;;;;;;;9.91;100.00;98828.78;5489420;26;19996;-81
2024/04/24 14:24:37;;;;;;;;;;;;;;;9.95;100.00;98825.00;5487346;26;19936;-82
2024/04/24 14:27:03;;;;;;;;;;;;;;;9.95;100.00;98826.81;5457264;26;19928;-83
2024/04/24 14:29:28;;;;;;;;;;;;;;;9.90;100.00;98820.91;5489535;26;19939;-84
2024/04/24 14:31:53;;;;;;;;;;;;;;;9.98;100.00;98821.34;5487880;26;20270;-82
2024/04/24 14:34:19;;;;;;;;;;;;;;;9.93;100.00;98807.53;5457330;26;19935;-81
2024/04/24 14:36:44;;;;;;;;;;;;;;;9.91;100.00;98809.41;5489221;26;19939;-81
2024/04/24 14:39:09;;;;;;;;;;;;;;;9.91;100.00;98810.25;5456997;26;19940;-83
2024/04/24 14:41:34;;;;;;;;;;;;;;;9.91;100.00;98807.59;5489299;26;20002;-81
2024/04/24 14:44:00;;;;;;;;;;;;;;;9.92;100.00;98805.81;5487804;26;19928;-86
2024/04/24 14:46:25;;;;;;;;;;;;;;;9.91;100.00;98797.03;5487671;26;19928;-81
2024/04/24 14:48:50;;;;;;;;;;;;;;;9.93;100.00;98812.81;5487786;26;19935;-88
2024/04/24 14:51:15;;;;;;;;;;;;;;;9.91;100.00;98804.97;5456855;26;19939;-87
2024/04/24 14:53:41;;;;;;;;;;;;;;;9.99;100.00;98797.44;5488840;26;20428;-81
2024/04/24 14:56:06;;;;;;;;;;;;;;;9.96;100.00;98789.66;5488909;26;19928;-80
2024/04/24 14:58:32;;;;;;;;;;;;;;;10.00;100.00;98785.94;5489059;26;19932;-83
2024/04/24 15:00:57;;;;;;;;;;;;;;;9.99;100.00;98786.00;5487198;26;20438;-82
2024/04/24 15:03:23;;;;;;;;;;;;;;;10.01;100.00;98781.47;5489119;26;19939;-80
2024/04/24 15:05:48;;;;;;;;;;;;;;;9.98;100.00;98779.84;5488278;26;19927;-80
2024/04/24 15:08:13;;;;;;;;;;;;;;;9.99;100.00;98776.28;5488926;26;19981;-80
2024/04/24 15:10:39;;;;;;;;;;;;;;;10.04;100.00;98776.00;5488915;26;19928;-80
2024/04/24 15:13:04;;;;;;;;;;;;;;;10.05;100.00;98774.22;5488683;26;19936;-80
2024/04/24 15:15:29;;;;;;;;;;;;;;;10.05;100.00;98768.91;5486273;26;20021;-80
2024/04/24 15:17:54;;;;;;;;;;;;;;;10.01;100.00;98768.25;5488560;26;20367;-81
2024/04/24 15:20:19;;;;;;;;;;;;;;;10.00;100.00;98761.22;5456494;26;20074;-81
2024/04/24 15:22:45;;;;;;;;;;;;;;;10.04;100.00;98761.94;5488480;26;19928;-82
2024/04/24 15:25:10;;;;;;;;;;;;;;;10.04;100.00;98754.84;5456226;26;19939;-83
2024/04/24 15:27:35;;;;;;;;;;;;;;;10.07;100.00;98756.44;5456336;26;19935;-81
2024/04/24 15:30:00;;;;;;;;;;;;;;;10.04;100.00;98765.44;5454579;26;19940;-80
2024/04/24 15:32:26;;;;;;;;;;;;;;;10.09;100.00;98770.47;5488243;26;19927;-86
2024/04/24 15:34:52;;;;;;;;;;;;;;;10.08;100.00;98774.88;5458779;26;19928;-89
2024/04/24 15:37:17;;;;;;;;;;;;;;;10.06;100.00;98768.81;5452242;26;20320;-89
2024/04/24 15:39:43;;;;;;;;;;;;;;;10.05;100.00;98763.63;5488966;26;19995;-84
2024/04/24 15:42:08;;;;;;;;;;;;;;;10.05;100.00;98767.16;5456059;26;19928;-86
2024/04/24 15:44:33;;;;;;;;;;;;;;;10.10;100.00;98764.22;5488179;26;20274;-88
2024/04/24 15:46:59;;;;;;;;;;;;;;;10.09;100.00;98771.31;5452962;26;20263;-87
2024/04/24 15:49:24;;;;;;;;;;;;;;;10.07;100.00;98761.72;5486522;26;20214;-84
2024/04/24 15:51:49;;;;;;;;;;;;;;;10.10;100.00;98777.44;5487826;26;19934;-83
2024/04/24 15:54:15;;;;;;;;;;;;;;;10.05;100.00;98768.91;5485003;26;20374;-81
2024/04/24 15:56:40;;;;;;;;;;;;;;;10.07;100.00;98767.03;5486412;26;20283;-81
2024/04/24 15:59:05;;;;;;;;;;;;;;;10.10;100.00;98766.84;5485045;26;19935;-81
2024/04/24 16:01:30;;;;;;;;;;;;;;;10.08;100.00;98769.59;5486281;26;19931;-84
2024/04/24 16:03:56;;;;;;;;;;;;;;;10.10;100.00;98778.31;5482543;26;20387;-84
2024/04/24 16:06:21;;;;;;;;;;;;;;;10.08;100.00;98777.53;5484726;26;19935;-80
2024/04/24 16:08:47;;;;;;;;;;;;;;;10.07;100.00;98774.97;5486833;26;19927;-80
2024/04/24 16:11:12;;;;;;;;;;;;;;;10.09;100.00;98765.16;5487771;26;19928;-82
2024/04/24 16:13:37;;;;;;;;;;;;;;;10.07;100.00;98772.31;5486178;26;19940;-81
2024/04/24 16:16:03;;;;;;;;;;;;;;;10.08;100.00;98769.59;5484085;26;20563;-82
2024/04/24 16:18:28;;;;;;;;;;;;;;;10.10;100.00;98772.16;5486014;26;19939;-80
2024/04/24 16:20:56;;;;;;;;;;;;;;;10.08;100.00;98758.16;5482488;26;20381;-81
2024/04/24 16:23:21;;;;;;;;;;;;;;;10.07;100.00;98761.72;5486785;26;20436;-80
2024/04/24 16:25:46;;;;;;;;;;;;;;;10.09;100.00;98759.88;5453562;26;19935;-81
2024/04/24 16:28:11;;;;;;;;;;;;;;;10.10;100.00;98750.97;5489349;26;20423;-79
2024/04/24 16:30:37;;;;;;;;;;;;;;;10.13;100.00;98761.38;5486153;26;20283;-82
2024/04/24 16:33:02;;;;;;;;;;;;;;;10.15;100.00;98757.72;5455167;26;19936;-82
2024/04/24 16:35:27;;;;;;;;;;;;;;;10.16;100.00;98767.38;5456658;26;20367;-81
2024/04/24 16:37:52;;;;;;;;;;;;;;;10.18;100.00;98764.66;5490115;26;19936;-80
2024/04/24 16:40:18;;;;;;;;;;;;;;;10.16;100.00;98761.22;5455231;26;20379;-81
2024/04/24 16:42:43;;;;;;;;;;;;;;;10.14;100.00;98761.28;5490757;26;20003;-82
2024/04/24 16:45:12;;;;;;;;;;;;;;;10.12;100.00;98763.19;5486628;26;19935;-80
2024/04/24 16:47:37;;;;;;;;;;;;;;;10.13;100.00;98766.69;5457549;26;19928;-81
2024/04/24 16:50:02;;;;;;;;;;;;;;;10.14;100.00;98763.09;5489912;26;20381;-81
2024/04/24 16:52:27;;;;;;;;;;;;;;;10.14;100.00;98763.09;5490666;26;19928;-81
2024/04/24 16:54:55;;;;;;;;;;;;;;;10.12;100.00;98773.78;5488851;26;20273;-82
2024/04/24 16:57:21;;;;;;;;;;;;;;;10.14;100.00;98773.69;5488979;26;19928;-80
2024/04/24 16:59:46;;;;;;;;;;;;;;;10.15;100.00;98775.41;5489656;26;19935;-80
2024/04/24 17:02:11;;;;;;;;;;;;;;;10.13;100.00;98772.84;5489497;26;20267;-81
2024/04/24 17:04:37;;;;;;;;;;;;;;;10.12;100.00;98760.53;5487856;26;20363;-81
2024/04/24 17:07:02;;;;;;;;;;;;;;;10.12;100.00;98767.63;5486184;26;20267;-82
2024/04/24 17:09:28;;;;;;;;;;;;;;;10.10;100.00;98772.16;5488716;26;19927;-81
2024/04/24 17:11:53;;;;;;;;;;;;;;;10.11;100.00;98765.91;5489763;26;19939;-80
2024/04/24 17:14:18;;;;;;;;;;;;;;;10.13;100.00;98777.28;5487905;26;19928;-82
2024/04/24 17:16:43;;;;;;;;;;;;;;;10.12;100.00;98773.78;5484510;26;20032;-80
2024/04/24 17:19:09;;;;;;;;;;;;;;;10.09;100.00;98775.75;5488699;26;19928;-81
2024/04/24 17:21:34;;;;;;;;;;;;;;;10.10;100.00;98766.84;5490419;26;19935;-80
2024/04/24 17:24:00;;;;;;;;;;;;;;;10.11;100.00;98779.16;5490012;26;20026;-82
2024/04/24 17:26:25;;;;;;;;;;;;;;;10.10;100.00;98780.09;5489434;26;20395;-80
2024/04/24 17:28:52;;;;;;;;;;;;;;;10.13;100.00;98779.91;5489526;26;19935;-81
2024/04/24 17:31:17;;;;;;;;;;;;;;;10.12;100.00;98786.16;5485977;26;20018;-80
2024/04/24 17:33:42;;;;;;;;;;;;;;;10.11;100.00;98787.09;5457988;26;19940;-80
2024/04/24 17:36:08;;;;;;;;;;;;;;;10.12;100.00;98791.47;5457816;26;19928;-80
2024/04/24 17:38:33;;;;;;;;;;;;;;;10.13;100.00;98798.44;5488081;26;19934;-85
2024/04/24 17:40:59;;;;;;;;;;;;;;;10.11;100.00;98795.03;5453693;26;19928;-83
2024/04/24 17:43:25;;;;;;;;;;;;;;;8.55;100.00;98803.31;5451246;26;19976;-82
2024/04/24 17:45:51;;;;;;;;;;;;;;;7.86;100.00;98814.56;5419745;26;19943;-82
2024/04/24 17:48:16;;;;;;;;;;;;;;;7.53;100.00;98817.81;5451938;26;19928;-80
2024/04/24 17:50:41;;;;;;;;;;;;;;;7.35;100.00;98823.00;5447132;26;19939;-81
2024/04/24 17:53:07;;;;;;;;;;;;;;;7.20;100.00;98821.91;5450548;26;19929;-83
2024/04/24 17:55:32;;;;;;;;;;;;;;;7.14;100.00;98823.97;5450118;26;19928;-84
2024/04/24 17:57:58;;;;;;;;;;;;;;;7.04;100.00;98837.53;5453005;26;20349;-80
2024/04/24 18:00:23;;;;;;;;;;;;;;;6.94;100.00;98838.88;5422589;26;20357;-83
2024/04/24 18:02:48;;;;;;;;;;;;;;;6.87;100.00;98834.78;5421587;26;19935;-85
2024/04/24 18:05:14;;;;;;;;;;;;;;;6.88;100.00;98850.53;5453044;26;19929;-80
2024/04/24 18:07:39;;;;;;;;;;;;;;;6.83;100.00;98843.72;5453066;26;19935;-82
2024/04/24 18:10:04;;;;;;;;;;;;;;;7.88;100.00;98846.97;5452791;26;20372;-80
2024/04/24 18:12:30;;;;;;;;;;;;;;;7.05;100.00;98847.16;5451354;26;20049;-82
2024/04/24 18:14:57;;;;;;;;;;;;;;;6.81;100.00;98861.38;5451691;26;19928;-82
2024/04/24 18:17:22;;;;;;;;;;;;;;;6.68;100.00;98856.59;5453179;26;19929;-80
2024/04/24 18:19:47;;;;;;;;;;;;;;;6.62;100.00;98858.66;5453068;26;19933;-81
2024/04/24 18:22:13;;;;;;;;;;;;;;;6.57;100.00;98866.72;5452765;26;19929;-80
2024/04/24 18:24:38;;;;;;;;;;;;;;;6.50;100.00;98865.28;5452689;26;19928;-80
2024/04/24 18:27:03;;;;;;;;;;;;;;;6.44;100.00;98862.91;5421097;26;19938;-81
2024/04/24 18:29:28;;;;;;;;;;;;;;;6.44;100.00;98876.91;5421171;26;19928;-80
2024/04/24 18:31:54;;;;;;;;;;;;;;;6.39;100.00;98865.72;5451494;26;20356;-90
2024/04/24 18:34:19;;;;;;;;;;;;;;;6.34;100.00;98868.53;5421159;26;19935;-80
2024/04/24 18:36:44;;;;;;;;;;;;;;;6.34;100.00;98875.56;5452275;26;19928;-83
2024/04/24 18:39:09;;;;;;;;;;;;;;;6.27;100.00;98872.34;5452804;26;19937;-80
2024/04/24 18:41:35;;;;;;;;;;;;;;;6.26;100.00;98875.88;5452814;26;20378;-83
2024/04/24 18:44:00;;;;;;;;;;;;;;;6.22;100.00;98876.06;5421046;26;19996;-92
2024/04/24 18:46:25;;;;;;;;;;;;;;;6.21;100.00;98888.34;5443834;26;19929;-83
2024/04/24 18:48:50;;;;;;;;;;;;;;;6.16;100.00;98888.53;5419836;26;19928;-90
2024/04/24 18:51:16;;;;;;;;;;;;;;;6.15;100.00;98889.44;5420643;26;19928;-81
2024/04/24 18:53:41;;;;;;;;;;;;;;;6.13;100.00;98887.81;5452495;26;19929;-81
2024/04/24 18:56:08;;;;;;;;;;;;;;;6.09;100.00;98891.47;5421870;26;19928;-82
2024/04/24 18:58:33;;;;;;;;;;;;;;;6.08;100.00;98895.00;5452433;26;19928;-81
2024/04/24 19:01:00;;;;;;;;;;;;;;;6.05;100.00;98896.00;5449932;26;19935;-81
2024/04/24 19:03:25;;;;;;;;;;;;;;;6.02;100.00;98901.38;5448630;26;20367;-82
2024/04/24 19:05:51;;;;;;;;;;;;;;;6.00;100.00;98904.06;5418165;26;19936;-82
2024/04/24 19:08:16;;;;;;;;;;;;;;;5.95;100.00;98900.72;5450671;26;19928;-83
2024/04/24 19:10:45;;;;;;;;;;;;;;;5.94;100.00;98898.16;5417743;26;19928;-84
2024/04/24 19:13:13;;;;;;;;;;;;;;;5.90;100.00;98904.41;5418740;26;19939;-82
2024/04/24 19:15:42;;;;;;;;;;;;;;;5.91;100.00;98909.63;5446428;26;19935;-83
2024/04/24 19:18:08;;;;;;;;;;;;;;;5.87;100.00;98915.94;5417968;26;19932;-80
2024/04/24 19:20:35;;;;;;;;;;;;;;;5.91;100.00;98914.88;5420230;26;19968;-82
2024/04/24 19:23:01;;;;;;;;;;;;;;;5.88;100.00;98920.25;5452142;26;19928;-82
2024/04/24 19:25:26;;;;;;;;;;;;;;;5.90;100.00;98925.44;5420067;26;19939;-82
2024/04/24 19:27:51;;;;;;;;;;;;;;;5.87;100.00;98934.34;5420398;26;19929;-81
2024/04/24 19:30:16;;;;;;;;;;;;;;;5.82;100.00;98920.47;5447901;26;19929;-83
2024/04/24 19:32:41;;;;;;;;;;;;;;;5.83;100.00;98933.56;5448744;26;20565;-82
2024/04/24 19:35:07;;;;;;;;;;;;;;;5.79;100.00;98931.97;5423878;26;20212;-82
2024/04/24 19:37:32;;;;;;;;;;;;;;;5.78;100.00;98932.03;5419895;26;19940;-80
2024/04/24 19:39:57;;;;;;;;;;;;;;;5.77;100.00;98932.94;5422282;26;19936;-81
2024/04/24 19:42:23;;;;;;;;;;;;;;;5.75;100.00;98932.16;5451838;26;19929;-79
2024/04/24 19:44:48;;;;;;;;;;;;;;;5.74;100.00;98930.44;5448124;26;20368;-83
2024/04/24 19:47:13;;;;;;;;;;;;;;;5.72;100.00;98934.88;5448490;26;20351;-80
2024/04/24 19:49:39;;;;;;;;;;;;;;;5.70;100.00;98931.47;5447636;26;20005;-80
2024/04/24 19:52:04;;;;;;;;;;;;;;;5.70;100.00;98937.56;5450998;26;19935;-80
2024/04/24 19:54:29;;;;;;;;;;;;;;;5.71;100.00;98934.03;5451147;26;20001;-82
2024/04/24 19:56:55;;;;;;;;;;;;;;;5.67;100.00;98942.09;5451643;26;19972;-80
2024/04/24 19:59:20;;;;;;;;;;;;;;;5.67;100.00;98948.19;5451474;26;19937;-82
2024/04/24 20:01:48;;;;;;;;;;;;;;;5.62;100.00;98948.34;5417993;26;19928;-80
2024/04/24 20:04:13;;;;;;;;;;;;;;;5.62;100.00;98945.72;5434537;26;19928;-79
2024/04/24 20:06:38;;;;;;;;;;;;;;;5.59;100.00;98945.00;5450430;26;20338;-80
2024/04/24 20:09:03;;;;;;;;;;;;;;;5.59;100.00;98945.00;5447697;26;19968;-80
2024/04/24 20:11:28;;;;;;;;;;;;;;;5.57;100.00;98946.81;5451319;26;19936;-80
2024/04/24 20:13:54;;;;;;;;;;;;;;;5.52;100.00;98948.72;5451546;26;19936;-80
2024/04/24 20:16:19;;;;;;;;;;;;;;;5.53;100.00;98951.31;5444007;26;19957;-80
2024/04/24 20:18:44;;;;;;;;;;;;;;;5.57;100.00;98952.94;5415377;26;19932;-80
2024/04/24 20:21:14;;;;;;;;;;;;;;;5.55;100.00;98953.88;5415525;26;19928;-81
2024/04/24 20:23:39;;;;;;;;;;;;;;;5.53;100.00;98958.34;5428923;26;19928;-85
2024/04/24 20:26:09;;;;;;;;;;;;;;;5.54;100.00;98954.81;5419349;26;19997;-81
2024/04/24 20:28:36;;;;;;;;;;;;;;;5.55;100.00;98957.38;5447159;26;19944;-81
2024/04/24 20:31:01;;;;;;;;;;;;;;;5.50;100.00;98961.06;5448845;26;20285;-80
2024/04/24 20:33:26;;;;;;;;;;;;;;;5.44;100.00;98963.00;5419170;26;19928;-80
2024/04/24 20:35:51;;;;;;;;;;;;;;;5.51;100.00;98961.03;5418825;26;19928;-83
2024/04/24 20:38:17;;;;;;;;;;;;;;;5.52;100.00;98967.13;5416472;26;19937;-80
2024/04/24 20:40:42;;;;;;;;;;;;;;;5.51;100.00;98968.91;5450861;26;19974;-84
2024/04/24 20:43:07;;;;;;;;;;;;;;;5.50;100.00;98967.19;5451067;26;19936;-83